Terminal Aerodrome Forecast
Issued by NWS New Orleans/Baton Rouge, LA

Home | Current Version | Previous Version | Text Only | Print | Product List | Glossary On
Versions: 1 2 3 4 5 6 7 8 9 10 11 12 13 14 15
000
FTUS44 KLIX 260520
TAFNEW
TAF
KNEW 260520Z 2606/2706 17009KT P6SM SKC
     FM261200 16010KT P6SM BKN025
     FM261700 17015G23KT P6SM BKN045
     FM270000 18016G24KT P6SM BKN025=

USA.gov is the U.S. government's official web portal to all federal, state and local government web resources and services.